Time;durP1;ratioP1;P1;durP2;ratioP2;P2;SDS_P1;SDS_P2;PMS_P1;PMS_P2;Temp;Humidity;BMP_temperature;BMP_pressure;BME280_temperature;BME280_humidity;BME280_pressure;Samples;Min_cycle;Max_cycle;Signal;HPM_P1;HPM_P2
2021/07/19 00:02:19;;;;;;;36.75;15.63;;;;;;;26.20;75.54;100072.23;1772464;79;21563;-60
2021/07/19 00:04:46;;;;;;;27.02;15.15;;;;;;;26.19;75.83;100075.98;1757253;80;21002;-61
2021/07/19 00:07:15;;;;;;;32.95;14.65;;;;;;;26.19;76.08;100077.36;1753902;79;21615;-60
2021/07/19 00:09:47;;;;;;;37.78;14.83;;;;;;;26.19;76.37;100080.11;1759050;79;21583;-61
2021/07/19 00:12:15;;;;;;;28.83;14.47;;;;;;;26.14;76.76;100076.99;1760025;79;20986;-60
2021/07/19 00:14:45;;;;;;;31.82;15.05;;;;;;;26.10;77.17;100078.38;1765747;79;21715;-60
2021/07/19 00:17:15;;;;;;;26.07;14.83;;;;;;;26.08;77.62;100074.95;1763637;79;21303;-60
2021/07/19 00:19:43;;;;;;;34.00;15.05;;;;;;;26.03;78.09;100080.45;1762233;79;20879;-60
2021/07/19 00:22:11;;;;;;;27.32;13.78;;;;;;;25.99;78.52;100074.95;1764993;79;20976;-60
2021/07/19 00:24:38;;;;;;;28.57;14.90;;;;;;;25.96;79.15;100072.53;1757162;79;20965;-60
2021/07/19 00:27:06;;;;;;;33.42;15.08;;;;;;;25.94;79.38;100071.84;1764371;79;21691;-59
2021/07/19 00:29:33;;;;;;;35.00;14.47;;;;;;;25.91;79.71;100065.33;1764721;79;20977;-60
2021/07/19 00:31:59;;;;;;;23.57;14.93;;;;;;;25.87;79.97;100073.56;1758317;79;22310;-60
2021/07/19 00:34:26;;;;;;;36.68;15.90;;;;;;;25.82;80.11;100071.86;1759548;79;21084;-59
2021/07/19 00:36:54;;;;;;;29.07;14.63;;;;;;;25.79;80.33;100077.69;1774149;78;21036;-60
2021/07/19 00:39:23;;;;;;;30.45;15.13;;;;;;;25.76;80.63;100073.39;1773591;78;20988;-60
2021/07/19 00:41:50;;;;;;;32.60;14.87;;;;;;;25.74;80.53;100064.47;1780756;78;21055;-60
2021/07/19 00:44:20;;;;;;;35.15;15.15;;;;;;;25.74;80.61;100068.58;1775938;78;21546;-60
2021/07/19 00:46:51;;;;;;;32.25;13.80;;;;;;;25.75;80.55;100067.55;1782503;78;20932;-60
2021/07/19 00:49:18;;;;;;;27.73;14.73;;;;;;;25.76;80.43;100067.05;1784716;78;20873;-60
2021/07/19 00:51:47;;;;;;;25.88;14.00;;;;;;;25.73;80.31;100074.57;1780953;78;20917;-61
2021/07/19 00:54:20;;;;;;;28.67;14.18;;;;;;;25.71;80.55;100073.89;1775821;78;20898;-61
2021/07/19 00:56:49;;;;;;;29.70;14.70;;;;;;;25.67;80.49;100071.14;1778416;78;21141;-61
2021/07/19 00:59:17;;;;;;;30.12;13.72;;;;;;;25.66;80.58;100070.80;1773504;78;21263;-61
2021/07/19 01:01:46;;;;;;;28.15;14.40;;;;;;;25.67;80.53;100075.79;1775852;78;21516;-61
2021/07/19 01:04:16;;;;;;;34.92;13.60;;;;;;;25.67;80.53;100080.75;1772265;78;21096;-60
2021/07/19 01:06:44;;;;;;;36.15;13.08;;;;;;;25.68;80.51;100068.73;1778248;78;21063;-60
2021/07/19 01:09:12;;;;;;;22.25;13.88;;;;;;;25.69;80.38;100071.83;1780083;78;21948;-60
2021/07/19 01:11:39;;;;;;;25.32;12.80;;;;;;;25.67;80.32;100077.16;1782902;78;20901;-59
2021/07/19 01:14:06;;;;;;;27.58;13.45;;;;;;;25.65;80.22;100077.31;1779939;78;21386;-60
2021/07/19 01:16:36;;;;;;;25.68;13.13;;;;;;;25.64;80.18;100078.34;1777165;78;20893;-59
2021/07/19 01:19:03;;;;;;;25.27;12.90;;;;;;;25.64;80.19;100076.97;1783148;78;21537;-60
2021/07/19 01:21:54;;;;;;;28.17;13.62;;;;;;;25.65;80.14;100086.92;1778718;78;21360;-60
2021/07/19 01:24:38;;;;;;;32.80;13.15;;;;;;;25.66;80.09;100084.52;1735247;80;21114;-60
2021/07/19 01:27:35;;;;;;;21.00;13.65;;;;;;;25.64;80.10;100086.58;1746116;78;21095;-62
2021/07/19 01:30:04;;;;;;;;;;;;;;;25.58;80.27;100085.89;1775128;78;21086;-60
2021/07/19 01:32:34;;;;;;;37.70;13.50;;;;;;;25.56;80.51;100085.20;1780211;78;20153;-60
2021/07/19 01:35:00;;;;;;;21.20;13.93;;;;;;;25.53;80.58;100080.02;1783190;78;21023;-60
2021/07/19 01:37:27;;;;;;;24.92;14.05;;;;;;;25.50;80.85;100083.11;1761181;78;20872;-60
2021/07/19 01:40:06;;;;;;;24.72;13.83;;;;;;;25.47;81.04;100081.58;1780112;78;21403;-61
2021/07/19 01:42:36;;;;;;;27.58;13.13;;;;;;;25.42;81.31;100083.41;1779586;78;20948;-62
2021/07/19 01:45:05;;;;;;;22.60;14.00;;;;;;;25.39;81.52;100085.62;1782100;78;20957;-60
2021/07/19 01:47:33;;;;;;;30.70;14.70;;;;;;;25.31;81.86;100085.08;1775199;78;21095;-60
2021/07/19 01:50:00;;;;;;;25.80;14.20;;;;;;;25.26;82.19;100085.60;1750481;79;20951;-60
2021/07/19 01:52:27;;;;;;;31.15;14.18;;;;;;;25.23;82.53;100090.55;1777446;78;21362;-60
2021/07/19 01:54:54;;;;;;;29.37;14.68;;;;;;;25.21;82.91;100093.47;1754856;78;21383;-60
2021/07/19 01:57:21;;;;;;;24.05;13.62;;;;;;;25.18;83.05;100083.69;1777360;78;20959;-60
2021/07/19 01:59:51;;;;;;;30.60;14.23;;;;;;;25.16;83.33;100083.48;1773200;78;20857;-60
2021/07/19 02:02:22;;;;;;;27.85;13.93;;;;;;;25.09;83.62;100086.06;1757791;78;20995;-59
2021/07/19 02:04:51;;;;;;;24.72;14.05;;;;;;;25.04;84.00;100091.16;1777490;78;21489;-60
2021/07/19 02:07:19;;;;;;;23.47;13.93;;;;;;;24.99;84.29;100092.17;1781455;78;21051;-60
2021/07/19 02:09:48;;;;;;;30.20;13.95;;;;;;;24.97;84.57;100089.58;1780360;78;21083;-60
2021/07/19 02:12:19;;;;;;;30.82;14.73;;;;;;;24.98;84.87;100089.08;1714796;81;21168;-62
2021/07/19 02:14:47;;;;;;;36.38;14.30;;;;;;;24.95;85.27;100089.41;1736887;80;20913;-62
2021/07/19 02:17:15;;;;;;;25.88;13.85;;;;;;;24.89;85.54;100097.28;1745181;80;20929;-62
2021/07/19 02:19:42;;;;;;;32.53;14.60;;;;;;;24.82;85.91;100097.56;1748142;80;21309;-61
2021/07/19 02:22:12;;;;;;;29.63;14.05;;;;;;;24.80;86.17;100095.50;1743226;80;21559;-62
2021/07/19 02:24:40;;;;;;;32.35;14.40;;;;;;;24.78;86.52;100103.55;1721313;82;21580;-62
2021/07/19 02:27:15;;;;;;;25.80;13.88;;;;;;;24.78;86.40;100098.91;1723050;81;21027;-61
2021/07/19 02:29:42;;;;;;;28.32;13.85;;;;;;;24.81;86.22;100098.59;1733427;81;20945;-61
2021/07/19 02:32:09;;;;;;;24.30;14.15;;;;;;;24.81;85.87;100102.70;1733189;81;21505;-63
2021/07/19 02:34:36;;;;;;;29.80;14.38;;;;;;;24.82;85.85;100098.93;1737269;81;21565;-63
2021/07/19 02:37:02;;;;;;;27.05;14.25;;;;;;;24.80;85.85;100094.13;1704026;81;21416;-63
2021/07/19 02:39:31;;;;;;;30.08;13.13;;;;;;;24.79;86.01;100097.89;1708311;82;20905;-63
2021/07/19 02:42:00;;;;;;;26.93;13.93;;;;;;;24.77;86.02;100101.84;1719207;81;20974;-62
2021/07/19 02:44:27;;;;;;;31.20;14.90;;;;;;;24.78;86.08;100098.91;1683004;82;21620;-61
2021/07/19 02:47:10;;;;;;;32.93;14.07;;;;;;;24.79;86.11;100100.63;1663015;83;21111;-60
2021/07/19 02:49:37;;;;;;;25.15;13.10;;;;;;;24.83;85.84;100101.17;1728372;80;21609;-61
2021/07/19 02:52:05;;;;;;;36.03;13.30;;;;;;;24.82;85.66;100104.94;1726654;80;20974;-60
2021/07/19 02:54:32;;;;;;;26.93;13.43;;;;;;;24.83;85.50;100102.02;1731522;80;21375;-59
2021/07/19 02:56:59;;;;;;;36.80;14.15;;;;;;;24.83;85.47;100106.13;1730652;80;21399;-59
2021/07/19 02:59:26;;;;;;;27.85;14.30;;;;;;;24.85;85.30;100102.71;1733186;81;21012;-59
2021/07/19 03:01:55;;;;;;;29.82;13.65;;;;;;;24.91;85.06;100101.73;1702189;81;21094;-60
2021/07/19 03:04:23;;;;;;;23.87;13.18;;;;;;;24.95;84.79;100101.75;1731099;80;21119;-59
2021/07/19 03:06:51;;;;;;;30.88;13.60;;;;;;;25.02;84.59;100108.28;1706784;81;21048;-59
2021/07/19 03:09:20;;;;;;;27.65;13.60;;;;;;;25.07;84.23;100111.39;1727244;80;21043;-58
2021/07/19 03:11:49;;;;;;;25.32;13.30;;;;;;;25.10;83.80;100108.34;1727414;80;21107;-59
2021/07/19 03:14:21;;;;;;;38.38;13.20;;;;;;;25.13;83.74;100110.75;1723589;81;21120;-60
2021/07/19 03:16:49;;;;;;;35.28;13.38;;;;;;;25.16;83.46;100109.05;1695976;80;20926;-59
2021/07/19 03:19:17;;;;;;;24.18;13.13;;;;;;;25.24;83.09;100108.72;1735934;81;20950;-60
2021/07/19 03:21:44;;;;;;;32.38;14.03;;;;;;;25.27;83.14;100109.76;1734770;80;21481;-60
2021/07/19 03:24:13;;;;;;;24.60;14.18;;;;;;;25.32;82.92;100115.63;1724734;80;21857;-60
2021/07/19 03:26:41;;;;;;;22.93;13.40;;;;;;;25.35;82.55;100122.15;1701117;80;21427;-60
2021/07/19 03:29:08;;;;;;;29.12;13.80;;;;;;;25.36;82.55;100121.13;1730274;80;21300;-60
2021/07/19 03:31:36;;;;;;;25.05;13.22;;;;;;;25.40;82.57;100121.13;1703543;80;21359;-59
2021/07/19 03:34:05;;;;;;;33.63;13.55;;;;;;;25.43;82.16;100133.14;1740395;80;21001;-59
2021/07/19 03:36:33;;;;;;;26.73;13.72;;;;;;;25.45;81.92;100128.34;1742998;80;21422;-59
2021/07/19 03:39:00;;;;;;;41.55;14.03;;;;;;;25.48;81.67;100123.08;1742200;79;21089;-60
2021/07/19 03:41:30;;;;;;;29.37;15.13;;;;;;;25.51;81.81;100124.61;1760407;79;21396;-59
2021/07/19 03:43:58;;;;;;;49.00;16.42;;;;;;;25.57;81.44;100123.97;1742904;79;21396;-59
2021/07/19 03:46:25;;;;;;;29.80;15.55;;;;;;;25.62;81.44;100132.55;1772406;79;20945;-60
2021/07/19 03:48:51;;;;;;;37.95;15.35;;;;;;;25.72;81.22;100135.15;1760171;79;21456;-59
2021/07/19 03:51:18;;;;;;;52.27;16.27;;;;;;;25.80;80.67;100132.94;1763038;79;21731;-59
2021/07/19 03:53:47;;;;;;;45.67;15.53;;;;;;;25.85;80.37;100127.26;1766826;79;21467;-60
2021/07/19 03:56:13;;;;;;;45.90;18.73;;;;;;;25.96;79.82;100129.35;1759103;79;21524;-60
2021/07/19 03:58:40;;;;;;;36.45;15.43;;;;;;;26.08;79.24;100134.00;1764444;79;21217;-60
2021/07/19 04:01:08;;;;;;;39.38;14.50;;;;;;;26.18;78.33;100137.45;1761796;79;21060;-60
2021/07/19 04:03:51;;;;;;;37.15;13.00;;;;;;;26.28;77.67;100134.53;1731411;81;21609;-59
2021/07/19 04:06:17;;;;;;;38.80;13.58;;;;;;;26.37;77.43;100142.27;1708667;82;20987;-58
2021/07/19 04:08:47;;;;;;;45.70;13.53;;;;;;;26.48;77.13;100138.30;1718662;80;20895;-58
2021/07/19 04:11:16;;;;;;;43.85;13.95;;;;;;;26.59;76.95;100134.68;1708702;82;20909;-59
2021/07/19 04:13:44;;;;;;;39.58;13.25;;;;;;;26.75;76.28;100141.20;1728002;81;20922;-59
2021/07/19 04:16:14;;;;;;;45.80;12.98;;;;;;;26.89;75.70;100143.77;1731134;81;21571;-59
2021/07/19 04:18:43;;;;;;;41.00;13.38;;;;;;;27.00;75.31;100145.28;1727537;81;20938;-60
2021/07/19 04:21:11;;;;;;;50.05;15.08;;;;;;;27.15;74.50;100142.65;1730688;81;21360;-62
2021/07/19 04:23:40;;;;;;;41.55;13.90;;;;;;;27.28;74.30;100139.33;1728733;81;21020;-60
2021/07/19 04:26:15;;;;;;;40.95;13.18;;;;;;;27.44;73.89;100144.77;1720520;81;22260;-60
2021/07/19 04:28:42;;;;;;;35.20;12.70;;;;;;;27.62;72.61;100150.56;1717112;81;21262;-59
2021/07/19 04:31:16;;;;;;;39.83;13.35;;;;;;;27.73;71.80;100155.65;1699970;80;21095;-60
2021/07/19 04:33:45;;;;;;;30.37;12.18;;;;;;;27.82;71.47;100156.45;1696157;81;21278;-60
2021/07/19 04:36:12;;;;;;;35.40;13.20;;;;;;;27.92;70.56;100160.89;1699823;81;22126;-60
2021/07/19 04:38:40;;;;;;;37.65;13.95;;;;;;;27.98;70.51;100158.78;1741001;80;21406;-60
2021/07/19 04:41:07;;;;;;;30.30;13.55;;;;;;;28.09;70.49;100157.49;1716244;80;21913;-59
2021/07/19 04:43:34;;;;;;;45.35;13.05;;;;;;;28.22;69.95;100157.78;1746847;80;22164;-59
2021/07/19 04:46:00;;;;;;;44.18;14.63;;;;;;;28.34;69.86;100164.22;1718292;81;22267;-59
2021/07/19 04:48:27;;;;;;;42.30;13.48;;;;;;;28.44;69.36;100168.43;1723843;82;21520;-59
2021/07/19 04:50:53;;;;;;;36.98;13.75;;;;;;;28.55;69.32;100167.13;1722640;82;22143;-59
2021/07/19 04:53:22;;;;;;;37.58;12.98;;;;;;;28.68;69.16;100158.22;1715921;81;21123;-59
2021/07/19 04:55:52;;;;;;;32.35;12.93;;;;;;;28.83;68.62;100159.64;1720301;81;21144;-59
2021/07/19 04:58:22;;;;;;;34.03;13.15;;;;;;;28.98;68.43;100165.20;1719499;82;21120;-59
2021/07/19 05:00:53;;;;;;;25.80;12.18;;;;;;;29.14;68.14;100164.14;1722344;81;21367;-60
2021/07/19 05:03:19;;;;;;;28.57;13.35;;;;;;;29.29;67.45;100166.02;1706692;81;21397;-60
2021/07/19 05:05:47;;;;;;;29.37;12.82;;;;;;;29.40;67.03;100166.93;1709691;81;22252;-59
2021/07/19 05:08:14;;;;;;;26.35;12.60;;;;;;;29.49;66.89;100163.58;1714027;81;20959;-59
2021/07/19 05:10:41;;;;;;;26.55;13.72;;;;;;;29.63;66.76;100164.59;1719376;81;20902;-59
2021/07/19 05:13:08;;;;;;;27.15;12.47;;;;;;;29.81;66.48;100164.70;1743525;80;21499;-59
2021/07/19 05:15:34;;;;;;;27.07;12.50;;;;;;;29.93;66.23;100172.78;1744034;80;20870;-59
2021/07/19 05:18:00;;;;;;;37.73;12.55;;;;;;;30.04;66.25;100180.28;1737262;80;21562;-59
2021/07/19 05:20:29;;;;;;;35.58;12.47;;;;;;;30.13;66.15;100170.80;1743968;80;21107;-59
2021/07/19 05:22:55;;;;;;;38.53;12.05;;;;;;;30.22;66.13;100177.92;1741946;80;21680;-60
2021/07/19 05:25:30;;;;;;;50.63;11.83;;;;;;;30.29;66.15;100167.77;1739270;80;21508;-59
2021/07/19 05:28:13;;;;;;;47.90;12.03;;;;;;;30.41;65.94;100186.06;1739209;80;20904;-59
2021/07/19 05:30:47;;;;;;;24.52;11.68;;;;;;;30.46;65.93;100175.80;1740632;80;21054;-59
2021/07/19 05:33:13;;;;;;;20.00;11.45;;;;;;;30.60;65.73;100176.77;1741794;80;21358;-59
2021/07/19 05:35:40;;;;;;;31.93;11.75;;;;;;;30.71;65.51;100181.76;1753335;80;20899;-59
2021/07/19 05:38:07;;;;;;;22.13;12.03;;;;;;;30.82;65.00;100177.59;1716297;81;21013;-59
2021/07/19 05:40:35;;;;;;;28.57;12.07;;;;;;;30.92;64.64;100184.70;1736427;80;21305;-59
2021/07/19 05:43:02;;;;;;;16.12;11.30;;;;;;;31.00;64.45;100178.48;1767394;79;21055;-59
2021/07/19 05:45:29;;;;;;;23.83;11.78;;;;;;;31.10;64.31;100184.16;1770389;78;21355;-59
2021/07/19 05:48:00;;;;;;;19.32;12.23;;;;;;;31.16;63.75;100181.44;1767242;79;20988;-60
2021/07/19 05:50:27;;;;;;;21.50;12.35;;;;;;;31.15;63.59;100176.97;1778085;79;20983;-59
2021/07/19 05:52:58;;;;;;;22.95;11.65;;;;;;;31.11;63.77;100181.20;1769901;79;21521;-60
2021/07/19 05:55:25;;;;;;;28.30;12.37;;;;;;;31.07;63.96;100185.45;1773308;78;21218;-60
2021/07/19 05:57:52;;;;;;;15.70;11.65;;;;;;;31.05;64.15;100189.47;1777685;79;21492;-59
2021/07/19 06:00:19;;;;;;;32.03;11.25;;;;;;;31.05;63.96;100184.77;1776997;79;21619;-60
2021/07/19 06:02:47;;;;;;;28.98;11.75;;;;;;;31.05;64.30;100186.15;1771893;79;21458;-60
2021/07/19 06:05:13;;;;;;;22.87;11.53;;;;;;;31.07;64.65;100193.75;1771940;79;21433;-60
2021/07/19 06:07:40;;;;;;;21.75;11.08;;;;;;;31.15;64.63;100194.95;1769616;79;21605;-60
2021/07/19 06:10:11;;;;;;;28.90;11.38;;;;;;;31.15;64.59;100192.19;1764792;79;21059;-60
2021/07/19 06:12:38;;;;;;;18.90;11.70;;;;;;;31.12;64.68;100187.07;1771615;79;21053;-60
2021/07/19 06:15:11;;;;;;;20.00;12.23;;;;;;;31.14;64.73;100200.69;1770738;79;21440;-59
2021/07/19 06:17:38;;;;;;;29.77;11.38;;;;;;;31.06;65.05;100201.73;1775759;78;20901;-60
2021/07/19 06:20:14;;;;;;;27.30;10.60;;;;;;;31.07;65.67;100195.65;1777468;79;22259;-60
2021/07/19 06:22:41;;;;;;;33.05;11.28;;;;;;;31.19;65.62;100200.95;1755621;79;20904;-60
2021/07/19 06:25:11;;;;;;;30.50;11.35;;;;;;;31.33;65.26;100196.89;1779172;78;42917;-60
2021/07/19 06:27:38;;;;;;;36.15;12.68;;;;;;;31.42;64.97;100200.67;1756152;79;20887;-60
2021/07/19 06:30:07;;;;;;;38.78;12.00;;;;;;;31.48;64.87;100206.45;1776427;78;20984;-60
2021/07/19 06:32:35;;;;;;;41.20;12.53;;;;;;;31.53;64.52;100206.70;1777730;78;21548;-60
2021/07/19 06:35:01;;;;;;;22.07;12.05;;;;;;;31.57;64.43;100211.61;1773773;78;21513;-62
2021/07/19 06:37:28;;;;;;;20.35;11.90;;;;;;;31.63;64.44;100208.55;1785114;78;20846;-60
2021/07/19 06:39:54;;;;;;;36.17;11.93;;;;;;;31.69;64.28;100213.25;1785623;78;20928;-60
2021/07/19 06:42:23;;;;;;;34.67;12.90;;;;;;;31.69;64.18;100199.41;1783505;78;20953;-60
2021/07/19 06:44:53;;;;;;;32.90;12.58;;;;;;;31.70;64.27;100215.52;1789347;78;21509;-60
2021/07/19 06:49:55;;;;;;;36.53;13.45;;;;;;;31.69;64.19;100215.19;1783545;78;20913;-60
2021/07/19 06:52:22;;;;;;;22.62;13.03;;;;;;;31.62;64.38;100211.00;1792822;78;20940;-60
2021/07/19 06:54:48;;;;;;;23.05;12.93;;;;;;;31.56;64.64;100206.29;1786022;78;21673;-59
2021/07/19 06:57:15;;;;;;;19.27;13.32;;;;;;;31.55;65.19;100200.42;1759901;80;21076;-60
2021/07/19 06:59:42;;;;;;;23.10;13.32;;;;;;;31.59;65.41;100208.64;1725636;81;20945;-60
2021/07/19 07:02:08;;;;;;;17.77;12.45;;;;;;;31.65;65.45;100200.88;1731833;80;21853;-61
2021/07/19 07:04:35;;;;;;;21.73;12.47;;;;;;;31.68;65.55;100206.55;1734826;80;20934;-60
2021/07/19 07:07:06;;;;;;;20.20;12.88;;;;;;;31.71;65.35;100198.66;1755331;80;20984;-61
2021/07/19 07:09:34;;;;;;;26.25;12.63;;;;;;;31.72;65.55;100201.78;1719945;81;21684;-61
2021/07/19 07:12:04;;;;;;;33.48;13.32;;;;;;;31.78;65.19;100203.43;1727667;81;20949;-61
2021/07/19 07:14:31;;;;;;;29.55;12.68;;;;;;;31.83;64.88;100205.03;1733102;81;20918;-61
2021/07/19 07:16:58;;;;;;;30.85;12.78;;;;;;;31.86;64.86;100204.62;1733656;81;21494;-61
2021/07/19 07:19:26;;;;;;;28.20;13.40;;;;;;;31.91;64.96;100200.69;1740925;80;20896;-59
2021/07/19 07:21:53;;;;;;;30.88;13.13;;;;;;;31.99;65.04;100201.89;1745692;80;21034;-61
2021/07/19 07:24:20;;;;;;;32.08;14.13;;;;;;;32.01;65.15;100208.09;1736008;80;21372;-61
2021/07/19 07:26:49;;;;;;;26.20;13.25;;;;;;;32.05;65.25;100204.34;1735230;80;21477;-60
2021/07/19 07:29:16;;;;;;;28.25;13.30;;;;;;;32.07;64.94;100201.38;1737607;80;21314;-61
2021/07/19 07:31:42;;;;;;;28.98;12.13;;;;;;;31.98;65.24;100209.89;1738055;81;20959;-60
2021/07/19 07:34:09;;;;;;;24.45;12.78;;;;;;;31.89;65.88;100209.73;1734011;80;21112;-58
2021/07/19 07:36:36;;;;;;;26.90;12.85;;;;;;;31.91;65.62;100196.52;1727513;80;20901;-59
2021/07/19 07:39:04;;;;;;;22.22;12.78;;;;;;;31.92;65.71;100209.31;1727017;81;20969;-62
2021/07/19 07:41:30;;;;;;;22.22;13.05;;;;;;;31.93;65.83;100203.26;1730179;81;20981;-61
2021/07/19 07:43:59;;;;;;;22.62;11.80;;;;;;;31.91;66.44;100201.23;1728026;81;21740;-62
2021/07/19 07:46:25;;;;;;;29.85;12.15;;;;;;;31.98;66.60;100206.25;1770285;78;20979;-60
2021/07/19 07:48:53;;;;;;;18.07;13.00;;;;;;;32.06;66.12;100206.08;1770518;78;20953;-61
2021/07/19 07:51:19;;;;;;;23.02;13.13;;;;;;;32.05;66.05;100211.27;1764650;79;21408;-61
2021/07/19 07:53:47;;;;;;;23.02;12.68;;;;;;;31.98;66.32;100208.51;1769716;78;20988;-61
2021/07/19 07:56:13;;;;;;;27.52;13.43;;;;;;;31.91;66.98;100206.23;1767789;79;21376;-61
2021/07/19 07:58:40;;;;;;;23.60;12.55;;;;;;;31.91;67.32;100210.38;1762197;78;21875;-62
2021/07/19 08:01:07;;;;;;;18.62;13.08;;;;;;;31.93;67.30;100219.89;1764233;78;20862;-60
2021/07/19 08:03:34;;;;;;;28.60;13.35;;;;;;;31.90;67.72;100210.06;1754997;78;21356;-62
2021/07/19 08:06:01;;;;;;;26.68;12.80;;;;;;;31.89;67.59;100218.05;1769548;79;20939;-61
2021/07/19 08:08:28;;;;;;;21.77;13.03;;;;;;;31.81;67.76;100219.63;1769701;79;21428;-62
2021/07/19 08:10:54;;;;;;;22.22;12.45;;;;;;;31.76;68.41;100229.08;1765916;79;21701;-62
2021/07/19 08:13:22;;;;;;;29.05;12.68;;;;;;;31.71;68.68;100218.05;1771793;79;21504;-62
2021/07/19 08:15:49;;;;;;;23.62;12.68;;;;;;;31.74;68.40;100223.73;1759727;78;21538;-63
2021/07/19 08:18:16;;;;;;;28.55;13.32;;;;;;;31.77;68.39;100218.34;1764770;79;20929;-62
2021/07/19 08:20:45;;;;;;;36.10;12.98;;;;;;;31.88;68.40;100212.19;1719445;80;20928;-62
2021/07/19 08:23:12;;;;;;;23.75;13.85;;;;;;;32.04;68.43;100216.49;1690062;82;21474;-63
2021/07/19 08:25:39;;;;;;;17.48;12.53;;;;;;;32.16;67.49;100222.28;1718365;81;21423;-63
2021/07/19 08:28:06;;;;;;;22.85;13.43;;;;;;;32.12;66.88;100218.22;1719838;81;20934;-61
2021/07/19 08:30:33;;;;;;;29.02;13.32;;;;;;;32.06;67.32;100222.71;1717848;81;20918;-62
2021/07/19 08:32:59;;;;;;;28.95;13.38;;;;;;;32.01;67.84;100224.72;1702558;82;20982;-62
2021/07/19 08:35:30;;;;;;;30.05;13.60;;;;;;;31.94;67.96;100219.66;1722723;81;21663;-62
2021/07/19 08:38:01;;;;;;;29.15;13.62;;;;;;;31.85;68.39;100216.25;1724977;80;20968;-63
2021/07/19 08:40:28;;;;;;;22.80;13.90;;;;;;;31.83;68.64;100214.73;1744687;80;20943;-63
2021/07/19 08:45:30;;;;;;;23.50;13.15;;;;;;;31.71;69.32;100201.98;1737489;80;20944;-63
2021/07/19 08:47:58;;;;;;;21.85;12.60;;;;;;;31.79;69.63;100202.36;1735803;80;21104;-64
2021/07/19 08:50:25;;;;;;;20.05;11.73;;;;;;;31.95;69.76;100203.38;1710457;80;21462;-65
2021/07/19 08:52:54;;;;;;;25.85;13.10;;;;;;;32.08;69.52;100204.47;1771935;78;20889;-64
2021/07/19 08:55:21;;;;;;;23.22;12.98;;;;;;;32.20;69.14;100206.96;1773985;78;20937;-61
2021/07/19 08:57:49;;;;;;;21.05;12.65;;;;;;;32.35;68.99;100209.56;1773441;78;20898;-61
2021/07/19 09:00:20;;;;;;;29.45;13.48;;;;;;;32.46;68.60;100205.31;1770015;78;21757;-62
2021/07/19 09:02:48;;;;;;;20.20;12.18;;;;;;;32.56;68.09;100207.12;1778431;78;20886;-62
2021/07/19 09:05:15;;;;;;;27.17;12.28;;;;;;;32.62;67.56;100207.36;1780165;78;21485;-66
2021/07/19 09:07:42;;;;;;;21.42;12.70;;;;;;;32.65;67.28;100199.98;1772745;78;21580;-62
2021/07/19 09:10:10;;;;;;;20.15;12.63;;;;;;;32.65;67.39;100209.70;1755603;78;21551;-62
2021/07/19 09:12:40;;;;;;;26.85;13.95;;;;;;;32.62;67.22;100211.52;1749019;78;21081;-62
2021/07/19 09:15:34;;;;;;;36.33;12.82;;;;;;;32.56;67.49;100202.95;1777535;78;20925;-61
2021/07/19 09:18:07;;;;;;;31.42;13.83;;;;;;;32.55;67.64;100204.02;1742389;80;21414;-59
2021/07/19 09:20:39;;;;;;;24.23;13.05;;;;;;;32.56;67.64;100207.67;1739948;80;20895;-64
2021/07/19 09:23:09;;;;;;;26.70;12.82;;;;;;;32.52;67.78;100203.62;1777136;78;21427;-62
2021/07/19 09:25:35;;;;;;;16.75;10.40;;;;;;;32.48;68.10;100200.41;1776863;78;21309;-60
2021/07/19 09:28:13;;;;;;;17.70;10.85;;;;;;;32.46;66.52;100203.92;1774945;78;20886;-61
2021/07/19 09:30:45;;;;;;;16.65;11.57;;;;;;;32.53;66.05;100203.39;1773662;78;21902;-62
2021/07/19 09:33:17;;;;;;;26.05;11.48;;;;;;;32.60;66.11;100204.78;1774778;78;20897;-64
2021/07/19 09:35:49;;;;;;;15.27;9.83;;;;;;;32.61;65.49;100202.33;1769999;78;21469;-62
2021/07/19 09:38:17;;;;;;;12.53;10.28;;;;;;;32.60;64.60;100195.07;1775229;78;21112;-63
2021/07/19 09:40:51;;;;;;;16.40;10.20;;;;;;;32.60;64.23;100194.20;1780385;78;20936;-64
2021/07/19 09:43:23;;;;;;;20.85;10.15;;;;;;;32.58;64.00;100203.59;1781130;78;20908;-64
2021/07/19 09:46:07;;;;;;;13.20;9.93;;;;;;;32.57;64.49;100199.11;1780263;78;20936;-65
2021/07/19 09:48:38;;;;;;;14.10;10.13;;;;;;;32.63;64.63;100200.73;1780738;78;21341;-62
2021/07/19 09:51:04;;;;;;;16.82;10.15;;;;;;;32.68;64.28;100207.88;1785584;78;21065;-62
2021/07/19 09:53:38;;;;;;;16.20;10.32;;;;;;;32.70;64.16;100202.42;1771993;78;21466;-64
2021/07/19 09:56:19;;;;;;;15.45;10.20;;;;;;;32.75;64.43;100194.02;1778719;78;20905;-62
2021/07/19 09:58:51;;;;;;;15.35;9.60;;;;;;;32.76;64.38;100195.17;1783333;78;20956;-64
2021/07/19 10:01:28;;;;;;;12.75;9.48;;;;;;;32.79;63.98;100201.67;1782313;78;20891;-64
2021/07/19 10:04:21;;;;;;;19.00;9.70;;;;;;;32.80;62.67;100188.66;1789955;78;21103;-63
2021/07/19 10:06:52;;;;;;;14.78;10.23;;;;;;;32.81;63.27;100193.98;1781642;78;22139;-63
2021/07/19 10:09:20;;;;;;;12.85;9.18;;;;;;;32.85;63.25;100198.06;1776701;78;20906;-61
2021/07/19 10:11:51;;;;;;;16.50;9.75;;;;;;;32.86;62.20;100201.16;1784600;78;20936;-63
2021/07/19 10:14:29;;;;;;;17.45;9.43;;;;;;;32.85;62.46;100206.39;1780733;78;20889;-63
2021/07/19 10:16:57;;;;;;;26.40;10.40;;;;;;;32.89;60.78;100205.98;1782614;78;21055;-63
2021/07/19 10:19:25;;;;;;;19.02;9.98;;;;;;;32.91;61.53;100202.45;1788770;78;21361;-61
2021/07/19 10:21:51;;;;;;;16.07;10.10;;;;;;;32.90;61.78;100206.30;1778119;78;20901;-62
2021/07/19 10:24:31;;;;;;;17.50;9.98;;;;;;;32.86;62.14;100205.31;1786298;78;20885;-63
2021/07/19 10:27:30;;;;;;;21.45;10.45;;;;;;;32.86;61.41;100201.67;1798740;78;21015;-64
2021/07/19 10:30:02;;;;;;;17.98;9.20;;;;;;;32.89;61.93;100208.76;1784446;78;21408;-63
2021/07/19 10:32:29;;;;;;;16.30;9.68;;;;;;;32.91;62.00;100201.06;1781707;78;20915;-64
2021/07/19 10:34:55;;;;;;;15.25;9.58;;;;;;;32.95;61.93;100200.43;1776740;78;21343;-64
2021/07/19 10:37:46;;;;;;;17.45;9.15;;;;;;;33.03;61.24;100206.27;1777749;78;21212;-64
2021/07/19 10:40:25;;;;;;;13.98;8.80;;;;;;;33.08;58.13;100209.27;1776225;78;21524;-64
2021/07/19 10:42:54;;;;;;;14.68;8.70;;;;;;;33.10;57.81;100205.73;1776637;78;21667;-64
2021/07/19 10:45:20;;;;;;;17.23;9.18;;;;;;;33.13;58.60;100203.91;1720055;78;21874;-64
2021/07/19 10:47:55;;;;;;;15.68;9.40;;;;;;;33.17;59.44;100203.47;1781886;78;21237;-63
2021/07/19 10:50:26;;;;;;;11.78;8.85;;;;;;;33.19;58.70;100204.11;1771841;78;20913;-64
2021/07/19 10:52:58;;;;;;;13.00;8.38;;;;;;;33.19;59.14;100198.03;1771676;78;21432;-63
2021/07/19 10:55:32;;;;;;;21.90;9.35;;;;;;;33.19;58.69;100197.16;1770950;78;21741;-60
2021/07/19 10:58:10;;;;;;;11.73;8.63;;;;;;;33.14;58.01;100195.90;1771236;78;20924;-59
2021/07/19 11:00:41;;;;;;;14.75;8.55;;;;;;;33.11;57.95;100190.78;1771526;78;21502;-64
2021/07/19 11:03:14;;;;;;;13.15;9.00;;;;;;;33.07;58.08;100183.09;1777556;78;21340;-59
2021/07/19 11:05:47;;;;;;;14.35;9.33;;;;;;;33.03;58.43;100182.67;1766520;78;21389;-67
2021/07/19 11:08:23;;;;;;;12.88;9.03;;;;;;;33.06;58.60;100185.56;1770749;78;21087;-64
2021/07/19 11:10:57;;;;;;;15.38;9.68;;;;;;;33.08;57.62;100184.28;1778607;78;21310;-66
2021/07/19 11:13:36;;;;;;;14.90;9.05;;;;;;;33.07;57.73;100181.19;1776211;78;20932;-71
2021/07/19 11:16:15;;;;;;;14.13;9.23;;;;;;;33.04;56.66;100173.27;1776075;78;21195;-62
2021/07/19 11:18:57;;;;;;;14.05;9.25;;;;;;;33.02;55.91;100171.80;1781613;78;20968;-61
2021/07/19 11:21:27;;;;;;;14.05;9.18;;;;;;;33.02;56.05;100172.63;1780528;78;21538;-61
2021/07/19 11:23:54;;;;;;;14.93;8.60;;;;;;;33.03;56.11;100172.11;1779926;78;21426;-62
2021/07/19 11:26:29;;;;;;;16.65;9.25;;;;;;;33.01;55.83;100166.77;1760991;78;20891;-69